Terminal Aerodrome Forecast
Issued by NWS Binghamton, NY

Home | Current Version | Previous Version | Text Only | Print | Product List | Glossary On
Versions: 1 2 3 4 5 6 7 8 9 10 11 12 13 14 15 16 17 18 19 20 21 22 23 24
986
FTUS41 KBGM 121129
TAFBGM
TAF
KBGM 121129Z 1212/1312 21006KT P6SM SCT050
     FM121400 21010KT P6SM SCT027 BKN040
     FM121900 21011KT P6SM BKN035 OVC060
     FM130300 24010KT P6SM BKN050
      TEMPO 1303/1306 3SM -SHSN OVC025
     FM130600 31017G30KT 5SM -SHSN BLSN BKN025 PROB30 1306/1312
      3/4SM -SHSN BLSN OVC008=

USA.gov is the U.S. government's official web portal to all federal, state and local government web resources and services.